createdAt,value
2018-07-25T00:01:37.989Z,2.80
2018-07-25T00:04:07.813Z,2.90
2018-07-25T00:06:43.737Z,2.65
2018-07-25T00:09:13.427Z,2.80
2018-07-25T00:11:43.120Z,3.05
2018-07-25T00:14:12.886Z,2.67
2018-07-25T00:16:42.617Z,2.80
2018-07-25T00:19:12.292Z,3.22
2018-07-25T00:21:41.980Z,3.00
2018-07-25T00:24:11.712Z,2.90
2018-07-25T00:26:41.400Z,2.80
2018-07-25T00:29:11.125Z,2.60
2018-07-25T00:31:40.888Z,2.92
2018-07-25T00:34:10.580Z,3.00
2018-07-25T00:36:40.276Z,3.08
2018-07-25T00:39:10.371Z,3.30
2018-07-25T00:41:40.124Z,3.00
2018-07-25T00:44:09.904Z,3.10
2018-07-25T00:46:40.084Z,3.10
2018-07-25T00:49:09.809Z,2.80
2018-07-25T00:51:39.497Z,3.22
2018-07-25T00:54:09.289Z,3.47
2018-07-25T00:56:39.011Z,3.40
2018-07-25T00:59:08.880Z,3.53
2018-07-25T01:01:38.616Z,3.17
2018-07-25T01:04:08.308Z,3.15
2018-07-25T01:06:38.012Z,3.60
2018-07-25T01:09:10.044Z,3.33
2018-07-25T01:11:39.771Z,3.52
2018-07-25T01:14:09.515Z,3.43
2018-07-25T01:16:39.884Z,3.52
2018-07-25T01:19:09.614Z,3.00
2018-07-25T01:21:39.324Z,3.42
2018-07-25T01:24:08.995Z,3.20
2018-07-25T01:26:38.716Z,3.53
2018-07-25T01:29:08.411Z,3.60
2018-07-25T01:31:38.164Z,3.43
2018-07-25T01:34:07.856Z,3.27
2018-07-25T01:36:37.567Z,3.33
2018-07-25T01:39:09.074Z,3.53
2018-07-25T01:41:38.872Z,3.27
2018-07-25T01:44:09.092Z,4.00
2018-07-25T01:46:38.852Z,3.33
2018-07-25T01:49:08.560Z,3.47
2018-07-25T01:51:38.296Z,3.37
2018-07-25T01:54:08.011Z,3.57
2018-07-25T01:56:37.709Z,2.90
2018-07-25T01:59:07.459Z,3.13
2018-07-25T02:01:37.155Z,3.47
2018-07-25T02:04:06.883Z,3.00
2018-07-25T02:06:36.625Z,2.83
2018-07-25T02:09:09.791Z,3.33
2018-07-25T02:11:39.743Z,3.20
2018-07-25T02:14:09.463Z,2.97
2018-07-25T02:16:39.211Z,3.20
2018-07-25T02:19:08.911Z,3.30
2018-07-25T02:21:38.632Z,3.43
2018-07-25T02:24:08.315Z,3.33
2018-07-25T02:26:38.023Z,3.30
2018-07-25T02:29:07.824Z,3.23
2018-07-25T02:31:37.539Z,3.13
2018-07-25T02:34:12.389Z,2.97
2018-07-25T02:36:42.117Z,3.20
2018-07-25T02:39:13.605Z,2.97
2018-07-25T02:41:44.371Z,3.13
2018-07-25T02:44:14.463Z,3.37
2018-07-25T02:46:44.341Z,3.27
2018-07-25T02:49:14.025Z,3.30
2018-07-25T02:51:43.753Z,2.83
2018-07-25T02:54:13.479Z,3.00
2018-07-25T02:56:43.169Z,3.10
2018-07-25T02:59:12.822Z,3.10
2018-07-25T03:01:42.591Z,3.13
2018-07-25T03:04:12.299Z,3.03
2018-07-25T03:06:41.969Z,2.80
2018-07-25T03:09:11.814Z,2.97
2018-07-25T03:11:41.808Z,3.23
2018-07-25T03:14:11.620Z,3.20
2018-07-25T03:16:41.309Z,2.77
2018-07-25T03:19:11.103Z,2.90
2018-07-25T03:21:40.848Z,2.77
2018-07-25T03:24:10.566Z,2.73
2018-07-25T03:26:40.489Z,3.03
2018-07-25T03:29:10.171Z,3.60
2018-07-25T03:31:39.968Z,3.23
2018-07-25T03:34:09.620Z,3.30
2018-07-25T03:36:39.332Z,3.17
2018-07-25T03:39:09.138Z,3.17
2018-07-25T03:41:38.824Z,3.17
2018-07-25T03:44:08.499Z,3.00
2018-07-25T03:46:38.226Z,3.53
2018-07-25T03:49:07.934Z,3.40
2018-07-25T03:51:37.675Z,3.00
2018-07-25T03:54:07.471Z,3.17
2018-07-25T03:56:37.180Z,3.27
2018-07-25T03:59:06.975Z,3.10
2018-07-25T04:01:36.737Z,3.50
2018-07-25T04:04:06.497Z,3.00
2018-07-25T04:06:36.223Z,2.90
2018-07-25T04:09:08.629Z,3.20
2018-07-25T04:11:38.623Z,2.77
2018-07-25T04:14:08.350Z,2.83
2018-07-25T04:16:38.073Z,3.17
2018-07-25T04:19:07.840Z,3.23
2018-07-25T04:21:37.523Z,3.10
2018-07-25T04:24:07.295Z,3.00
2018-07-25T04:26:37.412Z,3.37
2018-07-25T04:29:07.138Z,2.97
2018-07-25T04:31:36.846Z,3.33
2018-07-25T04:34:06.611Z,3.23
2018-07-25T04:36:36.332Z,3.10
2018-07-25T04:39:09.140Z,3.10
2018-07-25T04:41:39.079Z,3.30
2018-07-25T04:44:09.106Z,3.00
2018-07-25T04:46:39.270Z,3.10
2018-07-25T04:49:09.201Z,3.03
2018-07-25T04:51:38.904Z,3.07
2018-07-25T04:54:08.674Z,3.17
2018-07-25T04:56:38.412Z,3.37
2018-07-25T04:59:08.159Z,3.00
2018-07-25T05:01:37.823Z,3.23
2018-07-25T05:04:07.740Z,3.07
2018-07-25T05:06:37.502Z,3.13
2018-07-25T05:09:09.060Z,3.10
2018-07-25T05:11:38.905Z,2.90
2018-07-25T05:14:08.740Z,3.30
2018-07-25T05:16:38.467Z,3.00
2018-07-25T05:19:08.093Z,3.10
2018-07-25T05:21:39.020Z,2.90
2018-07-25T05:24:11.784Z,3.30
2018-07-25T05:26:41.492Z,3.20
2018-07-25T05:29:11.108Z,3.10
2018-07-25T05:31:40.767Z,3.10
2018-07-25T05:34:10.482Z,3.42
2018-07-25T05:36:40.146Z,2.90
2018-07-25T05:39:11.991Z,3.35
2018-07-25T05:41:42.289Z,2.87
2018-07-25T05:44:12.032Z,2.90
2018-07-25T05:46:41.660Z,3.08
2018-07-25T05:49:11.353Z,3.25
2018-07-25T05:51:41.131Z,2.60
2018-07-25T05:54:10.832Z,3.00
2018-07-25T05:56:40.520Z,3.02
2018-07-25T05:59:10.252Z,3.33
2018-07-25T06:01:39.909Z,3.08
2018-07-25T06:04:09.556Z,3.10
2018-07-25T06:06:39.276Z,3.17
2018-07-25T06:09:09.961Z,3.05
2018-07-25T06:11:40.208Z,2.62
2018-07-25T06:14:09.969Z,3.02
2018-07-25T06:16:39.699Z,2.95
2018-07-25T06:19:09.404Z,2.72
2018-07-25T06:21:39.065Z,3.08
2018-07-25T06:24:08.711Z,2.70
2018-07-25T06:26:38.413Z,3.02
2018-07-25T06:29:08.071Z,2.62
2018-07-25T06:31:37.858Z,2.92
2018-07-25T06:34:08.156Z,2.83
2018-07-25T06:36:38.315Z,2.92
2018-07-25T06:39:10.880Z,2.55
2018-07-25T06:41:40.696Z,2.75
2018-07-25T06:44:10.804Z,2.72
2018-07-25T06:46:40.473Z,2.72
2018-07-25T06:49:10.386Z,2.60
2018-07-25T06:51:40.104Z,2.67
2018-07-25T06:54:09.770Z,2.45
2018-07-25T06:56:39.478Z,2.33
2018-07-25T06:59:09.145Z,2.65
2018-07-25T07:01:38.803Z,2.50
2018-07-25T07:04:08.537Z,2.62
2018-07-25T07:06:38.227Z,3.10
2018-07-25T07:09:09.258Z,2.65
2018-07-25T07:11:38.924Z,2.62
2018-07-25T07:14:08.594Z,2.20
2018-07-25T07:16:38.280Z,2.33
2018-07-25T07:19:07.965Z,2.22
2018-07-25T07:21:37.616Z,2.42
2018-07-25T07:24:07.469Z,2.50
2018-07-25T07:26:37.156Z,2.30
2018-07-25T07:29:07.261Z,2.17
2018-07-25T07:31:36.916Z,2.10
2018-07-25T07:34:06.635Z,2.17
2018-07-25T07:36:36.331Z,2.35
2018-07-25T07:39:09.139Z,2.60
2018-07-25T07:41:38.984Z,2.30
2018-07-25T07:44:08.687Z,2.45
2018-07-25T07:46:38.702Z,2.30
2018-07-25T07:49:08.825Z,2.58
2018-07-25T07:51:38.533Z,2.60
2018-07-25T07:54:08.536Z,2.33
2018-07-25T07:56:38.227Z,2.55
2018-07-25T07:59:07.873Z,2.08
2018-07-25T08:01:37.561Z,2.40
2018-07-25T08:04:07.401Z,2.33
2018-07-25T08:06:37.141Z,2.17
2018-07-25T08:09:09.540Z,2.70
2018-07-25T08:11:39.226Z,2.22
2018-07-25T08:14:08.860Z,2.12
2018-07-25T08:16:38.634Z,2.30
2018-07-25T08:19:08.881Z,2.08
2018-07-25T08:21:38.614Z,2.33
2018-07-25T08:24:08.281Z,2.12
2018-07-25T08:26:38.004Z,1.77
2018-07-25T08:29:07.745Z,1.80
2018-07-25T08:31:37.881Z,1.80
2018-07-25T08:34:07.683Z,1.98
2018-07-25T08:36:37.379Z,2.00
2018-07-25T08:39:09.578Z,1.60
2018-07-25T08:41:39.317Z,2.20
2018-07-25T08:44:09.003Z,2.10
2018-07-25T08:46:38.716Z,1.90
2018-07-25T08:49:08.422Z,2.12
2018-07-25T08:51:38.147Z,2.10
2018-07-25T08:54:07.832Z,1.90
2018-07-25T08:56:37.533Z,2.20
2018-07-25T08:59:07.276Z,1.90
2018-07-25T09:01:36.972Z,2.10
2018-07-25T09:04:06.842Z,2.00
2018-07-25T09:06:36.560Z,1.98
2018-07-25T09:09:08.975Z,2.25
2018-07-25T09:11:38.700Z,2.30
2018-07-25T09:14:08.743Z,2.30
2018-07-25T09:16:38.479Z,2.45
2018-07-25T09:19:08.196Z,2.50
2018-07-25T09:21:37.864Z,2.25
2018-07-25T09:24:07.985Z,2.05
2018-07-25T09:26:37.651Z,1.85
2018-07-25T09:29:07.403Z,2.12
2018-07-25T09:31:37.125Z,2.00
2018-07-25T09:34:06.952Z,2.42
2018-07-25T09:36:36.639Z,2.00
2018-07-25T09:39:09.441Z,2.17
2018-07-25T09:41:39.176Z,1.98
2018-07-25T09:44:08.863Z,2.30
2018-07-25T09:46:38.583Z,1.90
2018-07-25T09:49:09.567Z,1.98
2018-07-25T09:51:39.302Z,2.00
2018-07-25T09:54:09.376Z,2.22
2018-07-25T09:56:39.138Z,2.27
2018-07-25T09:59:09.094Z,1.75
2018-07-25T10:01:38.801Z,1.90
2018-07-25T10:04:08.556Z,2.22
2018-07-25T10:06:38.515Z,2.20
2018-07-25T10:09:10.528Z,2.00
2018-07-25T10:11:40.504Z,2.30
2018-07-25T10:14:10.262Z,2.10
2018-07-25T10:16:40.506Z,2.20
2018-07-25T10:19:10.264Z,2.47
2018-07-25T10:21:39.972Z,1.95
2018-07-25T10:24:10.029Z,2.30
2018-07-25T10:26:39.786Z,2.08
2018-07-25T10:29:09.835Z,2.02
2018-07-25T10:31:39.926Z,2.00
2018-07-25T10:34:09.987Z,2.10
2018-07-25T10:36:39.738Z,1.67
2018-07-25T10:39:10.579Z,2.35
2018-07-25T10:41:40.248Z,1.75
2018-07-25T10:44:09.969Z,1.70
2018-07-25T10:46:39.974Z,1.60
2018-07-25T10:49:09.744Z,2.10
2018-07-25T10:51:39.476Z,1.90
2018-07-25T10:54:09.248Z,1.82
2018-07-25T10:56:39.001Z,2.05
2018-07-25T10:59:08.756Z,1.50
2018-07-25T11:01:38.490Z,1.65
2018-07-25T11:04:08.233Z,1.65
2018-07-25T11:06:37.958Z,1.55
2018-07-25T11:09:08.805Z,1.30
2018-07-25T11:11:38.760Z,1.60
2018-07-25T11:14:08.527Z,1.60
2018-07-25T11:16:38.225Z,1.67
2018-07-25T11:19:07.915Z,1.57
2018-07-25T11:21:37.657Z,2.00
2018-07-25T11:24:07.361Z,1.40
2018-07-25T11:26:37.085Z,1.47
2018-07-25T11:29:06.784Z,1.65
2018-07-25T11:31:36.463Z,1.98
2018-07-25T11:34:06.670Z,2.10
2018-07-25T11:36:36.344Z,1.70
2018-07-25T11:39:09.572Z,1.87
2018-07-25T11:41:39.901Z,2.05
2018-07-25T11:44:09.672Z,1.98
2018-07-25T11:46:39.349Z,2.05
2018-07-25T11:49:09.195Z,1.90
2018-07-25T11:51:38.855Z,1.60
2018-07-25T11:54:08.918Z,1.82
2018-07-25T11:56:38.673Z,2.20
2018-07-25T11:59:08.359Z,2.00
2018-07-25T12:01:38.212Z,2.35
2018-07-25T12:04:08.345Z,1.95
2018-07-25T12:06:38.124Z,2.20
2018-07-25T12:09:09.922Z,2.20
2018-07-25T12:11:46.736Z,2.10
2018-07-25T12:14:17.955Z,2.35
2018-07-25T12:16:47.753Z,2.02
2018-07-25T12:19:17.913Z,1.90
2018-07-25T12:21:47.660Z,1.98
2018-07-25T12:24:17.368Z,2.00
2018-07-25T12:26:47.148Z,1.80
2018-07-25T12:29:16.865Z,1.92
2018-07-25T12:31:46.595Z,1.70
2018-07-25T12:34:16.297Z,1.80
2018-07-25T12:36:46.060Z,1.77
2018-07-25T12:39:15.775Z,1.40
2018-07-25T12:41:45.555Z,1.50
2018-07-25T12:44:15.254Z,1.57
2018-07-25T12:46:45.355Z,1.65
2018-07-25T12:49:15.109Z,1.87
2018-07-25T12:51:45.178Z,1.60
2018-07-25T12:54:14.936Z,1.70
2018-07-25T12:56:44.664Z,2.05
2018-07-25T12:59:14.864Z,2.12
2018-07-25T13:01:44.645Z,1.90
2018-07-25T13:04:14.389Z,1.20
2018-07-25T13:06:44.172Z,1.60
2018-07-25T13:09:14.367Z,1.70
2018-07-25T13:11:43.994Z,1.90
2018-07-25T13:14:13.741Z,1.60
2018-07-25T13:16:43.484Z,1.55
2018-07-25T13:19:13.259Z,2.10
2018-07-25T13:21:43.404Z,3.00
2018-07-25T13:24:13.145Z,2.35
2018-07-25T13:26:42.865Z,1.80
2018-07-25T13:29:12.572Z,1.72
2018-07-25T13:31:42.344Z,1.70
2018-07-25T13:34:12.042Z,1.50
2018-07-25T13:36:41.814Z,1.57
2018-07-25T13:39:11.516Z,1.70
2018-07-25T13:41:41.437Z,1.70
2018-07-25T13:44:11.197Z,1.77
2018-07-25T13:46:40.900Z,1.85
2018-07-25T13:49:10.885Z,1.90
2018-07-25T13:51:41.135Z,1.70
2018-07-25T13:54:10.858Z,1.80
2018-07-25T13:56:40.549Z,2.05
2018-07-25T13:59:10.305Z,1.80
2018-07-25T14:01:40.092Z,1.62
2018-07-25T14:04:09.804Z,1.72
2018-07-25T14:06:39.586Z,1.70
2018-07-25T14:09:11.096Z,1.75
2018-07-25T14:11:41.291Z,1.77
2018-07-25T14:14:11.460Z,1.90
2018-07-25T14:16:41.225Z,1.75
2018-07-25T14:19:10.980Z,1.77
2018-07-25T14:21:41.117Z,1.72
2018-07-25T14:24:10.836Z,1.72
2018-07-25T14:26:40.586Z,1.70
2018-07-25T14:29:10.393Z,2.30
2018-07-25T14:31:40.003Z,2.00
2018-07-25T14:34:09.764Z,1.60
2018-07-25T14:36:39.753Z,1.60
2018-07-25T14:39:10.936Z,1.72
2018-07-25T14:41:41.205Z,1.67
2018-07-25T14:44:11.391Z,1.60
2018-07-25T14:46:41.290Z,1.60
2018-07-25T14:49:10.963Z,1.62
2018-07-25T14:51:40.680Z,1.67
2018-07-25T14:54:10.467Z,1.67
2018-07-25T14:56:40.205Z,1.50
2018-07-25T14:59:09.921Z,1.60
2018-07-25T15:01:39.740Z,1.27
2018-07-25T15:04:09.458Z,1.50
2018-07-25T15:06:39.276Z,1.50
2018-07-25T15:09:10.155Z,1.42
2018-07-25T15:11:40.126Z,1.40
2018-07-25T15:14:10.501Z,1.37
2018-07-25T15:16:40.270Z,1.37
2018-07-25T15:19:10.329Z,1.02
2018-07-25T15:21:40.551Z,1.10
2018-07-25T15:24:10.674Z,1.70
2018-07-25T15:26:41.043Z,1.80
2018-07-25T15:29:10.777Z,1.22
2018-07-25T15:31:40.453Z,1.30
2018-07-25T15:34:10.449Z,1.30
2018-07-25T15:36:45.942Z,1.37
2018-07-25T15:39:19.400Z,1.30
2018-07-25T15:41:50.859Z,1.52
2018-07-25T15:44:21.761Z,1.67
2018-07-25T15:46:51.510Z,1.45
2018-07-25T15:49:21.392Z,1.62
2018-07-25T15:51:51.108Z,1.98
2018-07-25T15:54:20.788Z,1.85
2018-07-25T15:56:50.655Z,1.72
2018-07-25T15:59:20.395Z,1.50
2018-07-25T16:01:50.206Z,1.70
2018-07-25T16:04:19.843Z,1.70
2018-07-25T16:06:49.659Z,1.80
2018-07-25T16:09:19.408Z,1.40
2018-07-25T16:11:49.198Z,1.70
2018-07-25T16:14:18.879Z,1.70
2018-07-25T16:16:48.617Z,1.82
2018-07-25T16:19:18.333Z,1.70
2018-07-25T16:21:48.043Z,2.20
2018-07-25T16:24:18.018Z,1.57
2018-07-25T16:26:47.740Z,1.77
2018-07-25T16:29:17.420Z,1.62
2018-07-25T16:31:47.209Z,2.02
2018-07-25T16:34:16.982Z,1.80
2018-07-25T16:36:46.667Z,2.12
2018-07-25T16:39:18.445Z,2.05
2018-07-25T16:41:48.253Z,1.80
2018-07-25T16:44:17.963Z,1.77
2018-07-25T16:46:47.727Z,1.40
2018-07-25T16:49:17.442Z,1.70
2018-07-25T16:51:47.188Z,1.90
2018-07-25T16:54:16.922Z,1.85
2018-07-25T16:56:46.702Z,1.90
2018-07-25T16:59:16.504Z,2.20
2018-07-25T17:01:46.218Z,1.92
2018-07-25T17:04:15.954Z,1.90
2018-07-25T17:06:45.728Z,1.80
2018-07-25T17:09:15.434Z,2.22
2018-07-25T17:11:45.262Z,1.80
2018-07-25T17:14:15.717Z,1.60
2018-07-25T17:16:45.462Z,2.08
2018-07-25T17:19:15.172Z,1.70
2018-07-25T17:21:44.908Z,1.80
2018-07-25T17:24:14.743Z,1.60
2018-07-25T17:26:44.452Z,1.40
2018-07-25T17:29:14.188Z,2.15
2018-07-25T17:31:43.912Z,1.60
2018-07-25T17:34:13.627Z,1.50
2018-07-25T17:36:43.378Z,1.42
2018-07-25T17:39:13.122Z,1.45
2018-07-25T17:41:43.197Z,1.32
2018-07-25T17:44:12.929Z,1.25
2018-07-25T17:46:42.681Z,1.50
2018-07-25T17:49:12.804Z,1.35
2018-07-25T17:51:42.565Z,1.40
2018-07-25T17:54:12.314Z,1.40
2018-07-25T17:56:42.328Z,1.42
2018-07-25T17:59:12.085Z,1.37
2018-07-25T18:01:42.101Z,1.30
2018-07-25T18:04:12.189Z,1.57
2018-07-25T18:06:41.944Z,1.52
2018-07-25T18:09:11.924Z,1.12
2018-07-25T18:11:41.979Z,1.27
2018-07-25T18:14:13.421Z,1.42
2018-07-25T18:16:44.373Z,1.50
2018-07-25T18:19:15.492Z,1.12
2018-07-25T18:21:45.588Z,1.47
2018-07-25T18:24:15.347Z,1.30
2018-07-25T18:26:45.116Z,1.20
2018-07-25T18:29:15.242Z,1.50
2018-07-25T18:31:45.238Z,1.20
2018-07-25T18:34:14.941Z,1.32
2018-07-25T18:36:44.672Z,2.12
2018-07-25T18:39:14.503Z,2.67
2018-07-25T18:41:44.974Z,1.47
2018-07-25T18:44:15.300Z,1.65
2018-07-25T18:46:45.709Z,1.82
2018-07-25T18:49:15.875Z,1.80
2018-07-25T18:51:45.591Z,1.77
2018-07-25T18:54:15.336Z,1.60
2018-07-25T18:56:45.083Z,1.52
2018-07-25T18:59:14.784Z,1.60
2018-07-25T19:01:44.628Z,1.47
2018-07-25T19:04:14.320Z,1.50
2018-07-25T19:06:44.120Z,1.60
2018-07-25T19:09:15.379Z,1.72
2018-07-25T19:11:45.827Z,1.22
2018-07-25T19:14:20.738Z,1.30
2018-07-25T19:16:50.513Z,1.07
2018-07-25T19:19:20.547Z,1.45
2018-07-25T19:21:50.318Z,1.30
2018-07-25T19:24:20.031Z,1.47
2018-07-25T19:26:49.723Z,1.67
2018-07-25T19:29:19.431Z,1.62
2018-07-25T19:31:49.137Z,2.05
2018-07-25T19:34:19.003Z,1.95
2018-07-25T19:36:48.776Z,1.70
2018-07-25T19:39:18.497Z,2.05
2018-07-25T19:41:48.235Z,2.33
2018-07-25T19:44:18.200Z,2.20
2018-07-25T19:46:47.920Z,2.33
2018-07-25T19:49:17.987Z,2.77
2018-07-25T19:51:48.840Z,2.10
2018-07-25T19:54:18.785Z,1.92
2018-07-25T19:56:51.720Z,2.00
2018-07-25T19:59:22.227Z,2.10
2018-07-25T20:01:52.803Z,2.42
2018-07-25T20:04:23.781Z,1.90
2018-07-25T20:06:53.587Z,2.20
2018-07-25T20:09:23.332Z,2.08
2018-07-25T20:11:53.041Z,1.80
2018-07-25T20:14:27.845Z,2.10
2018-07-25T20:16:57.686Z,2.12
2018-07-25T20:19:27.383Z,2.37
2018-07-25T20:21:57.803Z,2.15
2018-07-25T20:24:27.487Z,2.60
2018-07-25T20:26:57.494Z,2.40
2018-07-25T20:29:27.542Z,2.30
2018-07-25T20:31:57.281Z,2.22
2018-07-25T20:34:26.940Z,1.80
2018-07-25T20:36:56.599Z,2.08
2018-07-25T20:39:26.351Z,2.37
2018-07-25T20:41:56.065Z,2.15
2018-07-25T20:44:25.736Z,2.30
2018-07-25T20:46:55.809Z,3.00
2018-07-25T20:49:25.520Z,2.15
2018-07-25T20:51:55.623Z,2.50
2018-07-25T20:54:25.876Z,2.40
2018-07-25T20:56:56.005Z,2.37
2018-07-25T20:59:25.712Z,2.47
2018-07-25T21:01:56.040Z,2.15
2018-07-25T21:04:25.753Z,2.17
2018-07-25T21:06:55.479Z,2.30
2018-07-25T21:09:25.277Z,2.50
2018-07-25T21:11:55.372Z,3.02
2018-07-25T21:14:25.136Z,2.22
2018-07-25T21:16:54.797Z,2.08
2018-07-25T21:19:24.593Z,2.62
2018-07-25T21:21:54.831Z,2.10
2018-07-25T21:24:24.928Z,1.98
2018-07-25T21:26:54.701Z,2.02
2018-07-25T21:29:24.436Z,2.20
2018-07-25T21:31:54.552Z,2.05
2018-07-25T21:34:24.815Z,2.40
2018-07-25T21:36:54.765Z,2.95
2018-07-25T21:39:24.535Z,2.33
2018-07-25T21:41:54.249Z,2.35
2018-07-25T21:44:24.009Z,2.30
2018-07-25T21:46:54.175Z,2.55
2018-07-25T21:49:24.581Z,2.17
2018-07-25T21:51:54.707Z,2.55
2018-07-25T21:54:24.797Z,2.10
2018-07-25T21:56:54.932Z,2.20
2018-07-25T21:59:24.727Z,2.27
2018-07-25T22:01:54.901Z,2.08
2018-07-25T22:04:25.056Z,2.70
2018-07-25T22:06:55.114Z,2.50
2018-07-25T22:09:24.867Z,2.37
2018-07-25T22:11:54.611Z,2.27
2018-07-25T22:14:24.303Z,2.10
2018-07-25T22:16:54.325Z,2.52
2018-07-25T22:19:24.346Z,2.58
2018-07-25T22:21:54.121Z,2.40
2018-07-25T22:24:24.521Z,2.40
2018-07-25T22:26:54.270Z,2.37
2018-07-25T22:29:23.999Z,2.40
2018-07-25T22:31:53.688Z,2.60
2018-07-25T22:34:23.871Z,2.50
2018-07-25T22:36:54.041Z,2.20
2018-07-25T22:39:23.789Z,2.90
2018-07-25T22:41:54.007Z,3.10
2018-07-25T22:44:23.780Z,2.33
2018-07-25T22:46:53.934Z,2.65
2018-07-25T22:49:23.710Z,2.58
2018-07-25T22:51:53.429Z,2.50
2018-07-25T22:54:23.159Z,2.87
2018-07-25T22:56:52.844Z,2.52
2018-07-25T22:59:22.821Z,2.50
2018-07-25T23:01:52.845Z,2.60
2018-07-25T23:04:22.565Z,2.58
2018-07-25T23:06:52.376Z,2.70
2018-07-25T23:09:22.104Z,2.62
2018-07-25T23:11:51.841Z,2.70
2018-07-25T23:14:21.811Z,2.50
2018-07-25T23:16:51.556Z,2.47
2018-07-25T23:19:21.232Z,2.55
2018-07-25T23:21:50.956Z,2.75
2018-07-25T23:24:21.076Z,2.45
2018-07-25T23:26:51.279Z,2.15
2018-07-25T23:29:21.523Z,2.35
2018-07-25T23:31:51.493Z,2.45
2018-07-25T23:34:21.241Z,2.15
2018-07-25T23:36:50.945Z,2.62
2018-07-25T23:39:20.657Z,2.37
2018-07-25T23:41:50.442Z,2.55
2018-07-25T23:44:20.135Z,2.77
2018-07-25T23:46:50.217Z,2.65
2018-07-25T23:49:19.902Z,3.08
2018-07-25T23:51:50.013Z,2.33
2018-07-25T23:54:19.761Z,2.15
2018-07-25T23:56:49.455Z,2.42
2018-07-25T23:59:19.190Z,2.70
